Aérodrome :
LOGIN :

S'inscrire | Disclaimer

   EN    FR    IT 

 










Légende :    VFR   VFR Marginal   IFR   IFR Intensif   IFR Très Intensif
Visi : 
Plafond : 
>= 8 km
>= 3000ft
5 à 8 km
1000 à 3000 ft
1500m à 5 km
500 à 1000 ft
800 à 1500m
200 à 500 ft
< 800m
< 200 ft
Symboles :   Orages  Brouillard  Fortes neiges  Fortes précipitations  Vent > 20 kt
SIGMETs :   Divers  Orages  Givrage  Turbulence  Onde Orograph.  Cendres Volcan.






- Altitude de l'aérodrome : 1276 ft
- Code IATA : STR


EDDS - Stuttgart

DERNIER METAR :
  • 122050Z 10003KT CAVOK M01/M03 Q0995 NOSIG

METARs EXPIRÉS :
  • 122020Z VRB02KT CAVOK M01/M03 Q0996 NOSIG
  • 121950Z 10003KT 070V130 CAVOK M00/M03 Q0997 NOSIG
  • 121920Z 13004KT 100V160 9999 FEW039 00/M02 Q0997 NOSIG
  • 121850Z 15006KT 9999 FEW039 01/M02 Q0998 NOSIG
  • 121820Z 15004KT 9999 FEW039 01/M02 Q0999 NOSIG
  • 121750Z 15004KT 9999 FEW039 02/M02 Q0999 NOSIG

TAF TAF EDDS
Valide du 12 à 18h jusqu'au 13 à 18h UTC


121700Z 1218/1318 18005KT 9999 FEW015 BKN040
BECMG 1218/1220 12004KT
TEMPO 1302/1309 4000 SNRA BKN010
PROB30
TEMPO 1302/1308 1200 SN BKN005
BECMG 1308/1311 20009KT
TEMPO 1309/1311 RA BKN010
PROB30
TEMPO 1311/1318 25015G25KT 3000 SHRASN BKN014TCU



MET'MAP, la Météo Aéronautique d'un coup d'oeil ! - Copyright ORBIFLY Décembre 2007 - Disclaimer

ORBIFLY MET'MAP TEAM :

Programmation & Développement : Alexandra Zaïnal
Sur une idée originale de : Baudouin d'Aumeries
Assistance à la programmation : Marc-Olivier Méhu
Soutien technique & logistique : Manuel Goepfert

Contact : metmap@orbifly.com




SOURCES & CREDITS :

   NOAA